METAR Data
IDs: Format: Raw Decoded Include TAF

Data at: 0259 UTC 10 Dec 2022

METAR for:KCMH (Columbus Intl, OH, US)
Text:KCMH 100251Z 05005KT 8SM OVC024 06/04 A3013 RMK AO2 SLP207 60001 T00560039 58003
Temperature: 5.6°C ( 42°F)
Dewpoint: 3.9°C ( 39°F) [RH = 89%]
Pressure (altimeter):30.13 inches Hg (1020.4 mb) [Sea level pressure: 1020.7 mb]
Winds:from the NE (50 degrees) at 6 MPH (5 knots; 2.6 m/s)
Visibility: 8 sm ( 13 km)
Ceiling:2400 feet AGL
Clouds: overcast cloud deck at 2400 feet AGL